Time;durP1;ratioP1;P1;durP2;ratioP2;P2;SDS_P1;SDS_P2;PMS_P1;PMS_P2;Temp;Humidity;BMP_temperature;BMP_pressure;BME280_temperature;BME280_humidity;BME280_pressure;Samples;Min_cycle;Max_cycle;Signal;HPM_P1;HPM_P2
2022/01/16 00:04:09;;;;;;;80.85;32.55;;;3.00;99.90;;;;;;5025438;28;20470;-67
2022/01/16 00:06:36;;;;;;;79.78;32.28;;;3.00;99.90;;;;;;5034549;28;20046;-68
2022/01/16 00:09:03;;;;;;;94.53;33.25;;;3.00;99.90;;;;;;5033867;28;20363;-68
2022/01/16 00:11:29;;;;;;;87.75;33.45;;;3.00;99.90;;;;;;5034715;28;20052;-68
2022/01/16 00:13:55;;;;;;;81.65;32.70;;;2.90;99.90;;;;;;5034484;28;20049;-68
2022/01/16 00:16:21;;;;;;;79.32;32.40;;;2.90;99.90;;;;;;5034613;28;20037;-70
2022/01/16 00:18:49;;;;;;;81.95;31.67;;;2.90;99.90;;;;;;5034542;28;20041;-67
2022/01/16 00:21:23;;;;;;;79.70;33.03;;;2.90;99.90;;;;;;5016644;28;20164;-68
2022/01/16 00:23:49;;;;;;;;;;;2.90;99.90;;;;;;5034832;28;20057;-69
2022/01/16 00:26:15;;;;;;;75.65;31.05;;;2.80;99.90;;;;;;5000415;28;19921;-69
2022/01/16 00:28:40;;;;;;;67.75;29.38;;;2.80;99.90;;;;;;5016821;28;20428;-68
2022/01/16 00:31:06;;;;;;;65.05;28.77;;;2.70;99.90;;;;;;5014738;28;20049;-67
2022/01/16 00:33:31;;;;;;;72.93;31.42;;;2.70;99.90;;;;;;4997591;28;20042;-68
2022/01/16 00:35:57;;;;;;;70.82;30.83;;;2.70;99.90;;;;;;5014499;28;20050;-68
2022/01/16 00:38:23;;;;;;;76.80;30.58;;;2.70;99.90;;;;;;5014538;28;20053;-68
2022/01/16 00:40:48;;;;;;;83.55;31.60;;;2.70;99.90;;;;;;5014737;28;20050;-67
2022/01/16 00:43:14;;;;;;;78.65;31.75;;;2.60;99.90;;;;;;5014816;28;20116;-68
2022/01/16 00:45:40;;;;;;;81.85;33.45;;;2.60;99.90;;;;;;5014605;28;20057;-68
2022/01/16 00:48:06;;;;;;;85.22;32.45;;;2.60;99.90;;;;;;5017493;28;20126;-67
2022/01/16 00:50:34;;;;;;;93.25;34.35;;;2.70;99.90;;;;;;5017842;28;20050;-68
2022/01/16 00:53:01;;;;;;;83.95;32.35;;;2.70;99.90;;;;;;5018003;28;20160;-68
2022/01/16 00:55:27;;;;;;;75.05;31.92;;;2.60;99.90;;;;;;5018036;28;20050;-67
2022/01/16 00:57:53;;;;;;;74.32;33.10;;;2.60;99.90;;;;;;5018073;28;20046;-68
2022/01/16 01:00:18;;;;;;;75.78;32.30;;;2.60;99.90;;;;;;5030974;28;20060;-67
2022/01/16 01:02:44;;;;;;;81.90;32.30;;;2.50;99.90;;;;;;5037359;28;20347;-67
2022/01/16 01:05:10;;;;;;;82.20;33.25;;;2.50;99.90;;;;;;5037841;28;20046;-69
2022/01/16 01:07:38;;;;;;;72.80;31.48;;;2.50;99.90;;;;;;5037714;28;20053;-68
2022/01/16 01:10:04;;;;;;;66.50;29.08;;;2.50;99.90;;;;;;5037772;28;20049;-67
2022/01/16 01:12:41;;;;;;;62.55;29.67;;;2.40;99.90;;;;;;5037636;28;20428;-69
2022/01/16 01:15:09;;;;;;;61.85;29.25;;;2.40;99.90;;;;;;5037409;28;20374;-69
2022/01/16 01:17:44;;;;;;;65.45;30.98;;;2.40;99.90;;;;;;5037171;28;20056;-69
2022/01/16 01:20:14;;;;;;;66.43;31.08;;;2.40;99.90;;;;;;5037310;28;20409;-68
2022/01/16 01:22:40;;;;;;;68.68;32.03;;;2.30;99.90;;;;;;5037439;28;20162;-68
2022/01/16 01:25:06;;;;;;;71.47;31.25;;;2.30;99.90;;;;;;5037253;28;20080;-68
2022/01/16 01:27:33;;;;;;;66.55;30.58;;;2.30;99.90;;;;;;5019024;28;20557;-68
2022/01/16 01:30:06;;;;;;;78.63;32.45;;;2.30;99.90;;;;;;5023602;28;20077;-67
2022/01/16 01:32:33;;;;;;;75.22;32.17;;;2.30;99.90;;;;;;5024909;28;20033;-67
2022/01/16 01:34:59;;;;;;;72.63;31.40;;;2.30;99.90;;;;;;5036946;28;20532;-68
2022/01/16 01:37:25;;;;;;;74.68;33.10;;;2.40;99.90;;;;;;5036851;28;20343;-68
2022/01/16 01:39:51;;;;;;;83.82;34.28;;;2.40;99.90;;;;;;5019080;28;20115;-68
2022/01/16 01:42:17;;;;;;;83.00;32.42;;;2.40;99.90;;;;;;5037186;28;20048;-69
2022/01/16 01:52:57;;;;;;;89.00;35.72;;;2.30;99.90;;;;;;5036449;28;20111;-68
2022/01/16 01:55:24;;;;;;;82.15;34.40;;;2.30;99.90;;;;;;5036425;28;20054;-69
2022/01/16 01:57:49;;;;;;;85.75;34.92;;;2.30;99.90;;;;;;5036429;28;20465;-69
2022/01/16 02:00:18;;;;;;;83.60;34.95;;;2.30;99.90;;;;;;5032449;28;20037;-70
2022/01/16 02:05:32;;;;;;;95.15;37.30;;;2.30;99.90;;;;;;5035995;28;20140;-69
2022/01/16 02:07:57;;;;;;;94.07;36.35;;;2.30;99.90;;;;;;5026615;28;20116;-68
2022/01/16 02:10:23;;;;;;;87.07;36.58;;;2.30;99.90;;;;;;5016683;28;20053;-68
2022/01/16 02:12:56;;;;;;;97.75;38.42;;;2.30;99.90;;;;;;5016479;28;20339;-69
2022/01/16 02:27:59;;;;;;;96.83;38.73;;;2.70;99.90;;;;;;5016142;28;20180;-66
2022/01/16 02:31:57;;;;;;;99.93;37.55;;;2.30;99.90;;;;;;5016507;28;20140;-68
2022/01/16 02:34:31;;;;;;;86.88;35.03;;;2.30;99.90;;;;;;5016464;28;20046;-67
2022/01/16 02:37:01;;;;;;;103.50;38.58;;;2.30;99.90;;;;;;4999482;28;20370;-68
2022/01/16 02:39:31;;;;;;;101.80;38.00;;;2.30;99.90;;;;;;5016129;28;20358;-69
2022/01/16 02:41:59;;;;;;;105.00;37.95;;;2.20;99.90;;;;;;5016108;28;20054;-69
2022/01/16 02:46:55;;;;;;;99.07;38.70;;;2.20;99.90;;;;;;5015951;28;20057;-68
2022/01/16 02:49:24;;;;;;;101.30;38.22;;;2.40;99.90;;;;;;4998100;28;20053;-67
2022/01/16 02:52:06;;;;;;;116.93;40.42;;;2.20;99.90;;;;;;5016003;28;20124;-68
2022/01/16 02:54:36;;;;;;;122.45;41.20;;;2.20;99.90;;;;;;5016054;28;20064;-67
2022/01/16 02:57:03;;;;;;;123.70;42.30;;;2.20;99.90;;;;;;5015571;28;20045;-68
2022/01/16 02:59:29;;;;;;;150.68;44.83;;;2.20;99.90;;;;;;5005413;28;20037;-67
2022/01/16 03:01:55;;;;;;;139.57;44.05;;;2.20;99.90;;;;;;5035151;28;20385;-68
2022/01/16 03:04:21;;;;;;;119.25;41.95;;;2.30;99.90;;;;;;5035540;28;20049;-69
2022/01/16 03:06:46;;;;;;;127.43;43.42;;;2.30;99.90;;;;;;5035412;28;20052;-70
2022/01/16 03:09:12;;;;;;;127.68;42.45;;;2.30;99.90;;;;;;5035407;28;20053;-68
2022/01/16 03:11:48;;;;;;;128.63;43.10;;;2.30;99.90;;;;;;5034955;28;20129;-69
2022/01/16 03:14:17;;;;;;;139.82;43.85;;;2.30;99.90;;;;;;5035420;28;20425;-68
2022/01/16 03:16:47;;;;;;;133.48;43.92;;;2.30;99.90;;;;;;5035089;28;20060;-69
2022/01/16 03:22:02;;;;;;;122.75;43.05;;;2.30;99.90;;;;;;5017520;28;20096;-68
2022/01/16 03:24:32;;;;;;;134.88;42.83;;;2.30;99.90;;;;;;5034864;28;20084;-68
2022/01/16 03:27:06;;;;;;;150.85;44.47;;;2.40;99.90;;;;;;5017320;28;20058;-67
2022/01/16 03:29:32;;;;;;;126.13;42.95;;;2.40;99.90;;;;;;5027441;28;20085;-69
2022/01/16 03:32:00;;;;;;;137.63;43.97;;;2.40;99.90;;;;;;5015374;28;20049;-67
2022/01/16 03:34:26;;;;;;;135.77;43.47;;;2.60;99.90;;;;;;4997477;28;20123;-68
2022/01/16 03:36:52;;;;;;;142.73;44.70;;;2.40;99.90;;;;;;5015297;28;20045;-68
2022/01/16 03:39:17;;;;;;;131.25;44.70;;;2.40;99.90;;;;;;5015123;28;20064;-68
2022/01/16 03:41:43;;;;;;;130.25;43.40;;;2.50;99.90;;;;;;4997872;28;20050;-68
2022/01/16 03:44:10;;;;;;;131.48;43.35;;;2.50;99.90;;;;;;5015234;28;20060;-67
2022/01/16 03:46:38;;;;;;;144.43;45.00;;;2.50;99.90;;;;;;4997972;28;20100;-69
2022/01/16 03:49:21;;;;;;;131.70;44.50;;;2.50;99.90;;;;;;5015116;28;20054;-68
2022/01/16 03:51:49;;;;;;;132.60;43.42;;;2.90;99.90;;;;;;5014938;28;20290;-67
2022/01/16 03:54:18;;;;;;;137.85;42.67;;;2.50;99.90;;;;;;5015303;28;20125;-68
2022/01/16 03:56:43;;;;;;;130.27;43.33;;;2.50;99.90;;;;;;5015149;28;20045;-68
2022/01/16 03:59:09;;;;;;;144.57;43.45;;;2.50;99.90;;;;;;5017407;28;20045;-68
2022/01/16 04:01:35;;;;;;;140.45;43.30;;;2.60;99.90;;;;;;5015068;28;20045;-70
2022/01/16 04:04:02;;;;;;;137.23;42.05;;;2.60;99.90;;;;;;5014964;28;20120;-68
2022/01/16 04:06:28;;;;;;;148.75;43.55;;;2.60;99.90;;;;;;5014763;28;20045;-68
2022/01/16 04:08:55;;;;;;;147.07;42.10;;;2.90;99.90;;;;;;4997894;28;20057;-69
2022/01/16 04:11:22;;;;;;;149.23;43.40;;;2.60;99.90;;;;;;5015231;28;20053;-68
2022/01/16 04:13:51;;;;;;;147.88;44.08;;;2.60;99.90;;;;;;5014739;28;20064;-68
2022/01/16 04:16:18;;;;;;;138.13;43.15;;;2.60;99.90;;;;;;5014425;28;20041;-67
2022/01/16 04:18:44;;;;;;;155.13;43.85;;;2.60;99.90;;;;;;4997838;28;20053;-68
2022/01/16 04:21:10;;;;;;;163.25;46.38;;;2.60;99.90;;;;;;4997660;28;20134;-69
2022/01/16 04:23:35;;;;;;;148.65;44.08;;;2.70;99.90;;;;;;5001035;28;20058;-68
2022/01/16 04:26:01;;;;;;;162.20;45.45;;;2.60;99.90;;;;;;5018237;28;20065;-67
2022/01/16 04:28:26;;;;;;;155.93;42.35;;;2.70;99.90;;;;;;5001676;28;20057;-69
2022/01/16 04:30:52;;;;;;;143.85;43.53;;;2.70;99.90;;;;;;5038022;28;20480;-69
2022/01/16 04:33:19;;;;;;;178.45;47.65;;;2.70;99.90;;;;;;5038450;28;20111;-69
2022/01/16 04:35:45;;;;;;;166.88;44.30;;;2.70;99.90;;;;;;5037777;28;20077;-68
2022/01/16 04:38:10;;;;;;;138.32;42.25;;;2.70;99.90;;;;;;5038330;28;20432;-67
2022/01/16 04:43:47;;;;;;;172.13;44.63;;;2.70;99.90;;;;;;5020894;28;20049;-68
2022/01/16 04:46:12;;;;;;;153.93;44.15;;;2.80;99.90;;;;;;5037607;28;20049;-68
2022/01/16 04:48:38;;;;;;;156.50;45.53;;;2.80;99.90;;;;;;5021080;28;20072;-67
2022/01/16 04:51:03;;;;;;;173.13;45.15;;;2.80;99.90;;;;;;5020763;28;20331;-67
2022/01/16 04:53:29;;;;;;;155.57;44.78;;;2.80;99.90;;;;;;5037935;28;20056;-69
2022/01/16 04:55:55;;;;;;;136.05;41.70;;;2.80;99.90;;;;;;5037612;28;20081;-69
2022/01/16 04:58:21;;;;;;;135.00;39.97;;;2.90;99.90;;;;;;5037760;28;20389;-68
2022/01/16 05:00:47;;;;;;;151.35;41.60;;;2.90;99.90;;;;;;5000878;28;20053;-67
2022/01/16 05:03:12;;;;;;;145.60;42.58;;;3.10;99.90;;;;;;5017817;28;20041;-68
2022/01/16 05:05:38;;;;;;;161.68;44.45;;;3.00;99.90;;;;;;5017793;28;20184;-69
2022/01/16 05:08:04;;;;;;;170.27;44.50;;;3.00;99.90;;;;;;5017974;28;20129;-67
2022/01/16 05:10:29;;;;;;;164.48;44.67;;;3.00;99.90;;;;;;5000175;28;20123;-68
2022/01/16 05:13:04;;;;;;;148.57;43.22;;;3.00;99.90;;;;;;5017451;28;20128;-67
2022/01/16 05:18:14;;;;;;;177.98;45.25;;;3.00;99.90;;;;;;5017234;28;20156;-68
2022/01/16 05:20:40;;;;;;;149.35;43.92;;;3.00;99.90;;;;;;5016999;28;20458;-67
2022/01/16 05:23:05;;;;;;;153.40;42.63;;;3.00;99.90;;;;;;5017045;28;20049;-68
2022/01/16 05:25:31;;;;;;;144.55;43.35;;;3.20;99.90;;;;;;4999828;28;20363;-67
2022/01/16 05:27:56;;;;;;;162.77;43.42;;;3.00;99.90;;;;;;5017368;28;20115;-67
2022/01/16 05:30:22;;;;;;;171.88;46.22;;;3.00;99.90;;;;;;5017531;28;20124;-69
2022/01/16 05:32:48;;;;;;;156.27;44.10;;;3.00;99.90;;;;;;4999965;28;20048;-67
2022/01/16 05:35:13;;;;;;;173.73;45.78;;;3.10;99.90;;;;;;5016515;28;20053;-67
2022/01/16 05:37:39;;;;;;;197.63;47.03;;;3.10;99.90;;;;;;5017252;28;20100;-67
2022/01/16 05:40:06;;;;;;;172.65;45.95;;;3.10;99.90;;;;;;5016952;28;20454;-67
2022/01/16 05:42:32;;;;;;;152.85;43.30;;;3.10;99.90;;;;;;5016893;28;20065;-66
2022/01/16 05:44:58;;;;;;;175.65;45.63;;;3.10;99.90;;;;;;5016834;28;20120;-68
2022/01/16 05:47:24;;;;;;;183.73;46.80;;;3.20;99.90;;;;;;5016822;28;20458;-68
2022/01/16 05:49:49;;;;;;;171.27;47.50;;;3.20;99.90;;;;;;5016974;28;20136;-67
2022/01/16 05:52:15;;;;;;;201.38;48.92;;;3.20;99.90;;;;;;5016993;28;20450;-67
2022/01/16 05:54:40;;;;;;;169.57;45.33;;;3.20;99.90;;;;;;5016849;28;20463;-68
2022/01/16 05:57:07;;;;;;;179.40;48.08;;;3.20;99.90;;;;;;4999879;28;20081;-67
2022/01/16 05:59:32;;;;;;;199.80;48.45;;;3.20;99.90;;;;;;5027212;28;20118;-68
2022/01/16 06:01:58;;;;;;;179.95;46.65;;;3.20;99.90;;;;;;5020856;28;20054;-69
2022/01/16 06:04:24;;;;;;;189.63;46.47;;;3.20;99.90;;;;;;5016848;28;20097;-68
2022/01/16 06:06:49;;;;;;;164.13;45.88;;;3.20;99.90;;;;;;5016467;28;20042;-67
2022/01/16 06:09:15;;;;;;;187.90;47.75;;;3.30;99.90;;;;;;5016438;28;20041;-69
2022/01/16 06:11:40;;;;;;;168.25;47.35;;;3.30;99.90;;;;;;5016403;28;20046;-67
2022/01/16 06:14:06;;;;;;;184.63;48.95;;;3.30;99.90;;;;;;5016385;28;20045;-67
2022/01/16 06:16:32;;;;;;;180.95;48.47;;;3.30;99.90;;;;;;5016391;28;20090;-67
2022/01/16 06:18:57;;;;;;;182.93;46.92;;;3.30;99.90;;;;;;4999386;28;20050;-67
2022/01/16 06:21:23;;;;;;;187.90;47.53;;;3.40;99.90;;;;;;5016476;28;20442;-67
2022/01/16 06:23:48;;;;;;;184.57;48.05;;;3.30;99.90;;;;;;5019621;28;20038;-67
2022/01/16 06:26:14;;;;;;;192.05;48.75;;;3.30;99.90;;;;;;5008069;28;20133;-70
2022/01/16 06:28:39;;;;;;;176.20;48.45;;;3.40;99.90;;;;;;4995932;28;20054;-70
2022/01/16 06:31:05;;;;;;;178.75;48.10;;;3.40;99.90;;;;;;5005485;28;20383;-68
2022/01/16 06:33:31;;;;;;;168.45;46.80;;;3.40;99.90;;;;;;5016112;28;20045;-68
2022/01/16 06:35:56;;;;;;;165.68;47.03;;;3.40;99.90;;;;;;5015987;28;20088;-66
2022/01/16 06:38:22;;;;;;;157.30;45.83;;;3.40;99.90;;;;;;5009623;28;20068;-68
2022/01/16 06:40:47;;;;;;;168.35;46.45;;;3.40;99.90;;;;;;5000051;28;20053;-67
2022/01/16 06:43:13;;;;;;;179.65;48.60;;;3.50;99.90;;;;;;4996492;28;20050;-69
2022/01/16 06:45:38;;;;;;;169.68;47.83;;;3.50;99.90;;;;;;5015080;28;20053;-69
2022/01/16 06:48:04;;;;;;;160.57;46.60;;;3.50;99.90;;;;;;5016101;28;20417;-70
2022/01/16 06:50:30;;;;;;;181.05;49.30;;;3.60;99.90;;;;;;5015643;28;20045;-69
2022/01/16 06:52:55;;;;;;;180.85;47.85;;;3.60;99.90;;;;;;5015590;28;20046;-68
2022/01/16 06:55:21;;;;;;;167.18;47.45;;;3.60;99.90;;;;;;5016050;28;20493;-69
2022/01/16 06:57:46;;;;;;;154.52;45.25;;;3.60;99.90;;;;;;5015097;28;20065;-68
2022/01/16 07:00:12;;;;;;;157.45;46.75;;;3.60;99.90;;;;;;5015673;28;20042;-67
2022/01/16 07:02:38;;;;;;;176.02;48.65;;;3.70;99.90;;;;;;5015531;28;20092;-68
2022/01/16 07:05:04;;;;;;;155.57;45.95;;;3.70;99.90;;;;;;5012773;28;20052;-69
2022/01/16 07:07:30;;;;;;;170.35;48.72;;;3.70;99.90;;;;;;5008359;28;20048;-68
2022/01/16 07:09:56;;;;;;;168.25;47.95;;;3.80;99.90;;;;;;5015425;28;20120;-68
2022/01/16 07:12:22;;;;;;;164.63;48.35;;;3.80;99.90;;;;;;5015837;28;20133;-66
2022/01/16 07:14:48;;;;;;;161.45;48.72;;;3.90;99.90;;;;;;5015606;28;20366;-67
2022/01/16 07:17:13;;;;;;;172.00;48.85;;;3.90;99.90;;;;;;5012934;28;20065;-69
2022/01/16 07:19:39;;;;;;;168.77;48.97;;;4.00;99.90;;;;;;5015255;28;20049;-68
2022/01/16 07:22:05;;;;;;;168.10;48.00;;;3.90;99.90;;;;;;5015264;28;20077;-69
2022/01/16 07:24:31;;;;;;;156.65;47.95;;;3.90;99.90;;;;;;5014847;28;20085;-67
2022/01/16 07:27:00;;;;;;;174.55;49.00;;;3.90;99.90;;;;;;5014681;28;20470;-68
2022/01/16 07:29:26;;;;;;;165.00;47.75;;;3.90;99.90;;;;;;5015170;28;20375;-67
2022/01/16 07:31:52;;;;;;;174.57;50.08;;;4.00;99.90;;;;;;5015372;28;20120;-69
2022/01/16 07:34:17;;;;;;;172.77;50.25;;;4.00;99.90;;;;;;5015545;28;20129;-69
2022/01/16 07:36:43;;;;;;;178.10;47.80;;;4.00;99.90;;;;;;5014999;28;20034;-68
2022/01/16 07:39:09;;;;;;;167.55;51.20;;;4.10;99.90;;;;;;5010494;28;20382;-67
2022/01/16 07:41:34;;;;;;;168.95;50.65;;;4.10;99.90;;;;;;5004902;28;20042;-68
2022/01/16 07:44:01;;;;;;;179.88;50.53;;;4.10;99.90;;;;;;5003936;28;20188;-69
2022/01/16 07:46:27;;;;;;;162.23;48.80;;;4.10;99.90;;;;;;5007149;28;20050;-68
2022/01/16 07:48:53;;;;;;;169.10;49.35;;;4.10;99.90;;;;;;5003745;28;20056;-68
2022/01/16 07:51:19;;;;;;;166.93;49.88;;;4.10;99.90;;;;;;5002936;28;20367;-68
2022/01/16 07:53:44;;;;;;;160.73;49.47;;;4.20;99.90;;;;;;4994212;28;20375;-69
2022/01/16 07:56:10;;;;;;;182.95;52.58;;;4.10;99.90;;;;;;4996544;28;20050;-69
2022/01/16 07:58:36;;;;;;;176.43;51.13;;;4.10;99.90;;;;;;5000509;28;20042;-68
2022/01/16 08:01:03;;;;;;;175.20;51.25;;;4.20;99.90;;;;;;4999516;28;20034;-67
2022/01/16 08:03:28;;;;;;;160.93;50.90;;;4.20;99.90;;;;;;4997958;28;20126;-67
2022/01/16 08:05:54;;;;;;;176.20;49.28;;;4.20;99.90;;;;;;4999216;28;20130;-70
2022/01/16 08:08:19;;;;;;;155.52;48.42;;;4.20;99.90;;;;;;4999073;28;20066;-68
2022/01/16 08:10:45;;;;;;;171.70;49.35;;;4.20;99.90;;;;;;4998807;28;20129;-68
2022/01/16 08:13:10;;;;;;;160.48;50.38;;;4.30;99.90;;;;;;4998955;28;20039;-70
2022/01/16 08:15:36;;;;;;;162.60;52.33;;;4.30;99.90;;;;;;4999543;28;20057;-68
2022/01/16 08:18:02;;;;;;;175.48;51.00;;;4.30;99.90;;;;;;5018962;28;20045;-68
2022/01/16 08:20:27;;;;;;;152.40;49.20;;;4.30;99.90;;;;;;5018491;28;20118;-69
2022/01/16 08:22:54;;;;;;;144.30;48.30;;;4.40;99.90;;;;;;5018792;28;20049;-68
2022/01/16 08:25:22;;;;;;;163.65;49.60;;;4.40;99.90;;;;;;5019161;28;20053;-69
2022/01/16 08:27:47;;;;;;;152.70;49.22;;;4.40;99.90;;;;;;5020567;28;20061;-69
2022/01/16 08:30:13;;;;;;;150.20;49.00;;;4.50;99.90;;;;;;5038251;28;20361;-70
2022/01/16 08:32:39;;;;;;;144.68;51.65;;;4.50;99.90;;;;;;5038111;28;20045;-70
2022/01/16 08:35:06;;;;;;;138.32;48.42;;;4.50;99.90;;;;;;5020261;28;20076;-67
2022/01/16 08:37:31;;;;;;;139.65;48.92;;;4.50;99.90;;;;;;5018108;28;20049;-69
2022/01/16 08:39:57;;;;;;;145.55;49.53;;;4.60;99.90;;;;;;5027998;28;20057;-68
2022/01/16 08:42:23;;;;;;;139.90;50.58;;;4.60;99.90;;;;;;5011986;28;20042;-69
2022/01/16 08:44:49;;;;;;;130.82;50.13;;;4.70;99.90;;;;;;5020191;28;20416;-71
2022/01/16 08:47:15;;;;;;;127.80;49.03;;;4.70;99.90;;;;;;5019179;28;20428;-69
2022/01/16 08:49:40;;;;;;;122.82;45.42;;;4.70;99.90;;;;;;5019620;28;20087;-70
2022/01/16 08:52:06;;;;;;;121.55;47.00;;;4.80;99.90;;;;;;5037211;28;20118;-68
2022/01/16 08:54:33;;;;;;;124.03;46.55;;;4.90;99.90;;;;;;5037585;28;20463;-69
2022/01/16 08:57:00;;;;;;;112.25;45.83;;;4.90;99.90;;;;;;5019991;28;20049;-70
2022/01/16 08:59:25;;;;;;;122.05;48.03;;;4.90;99.90;;;;;;5037689;28;20056;-70
2022/01/16 09:01:51;;;;;;;116.28;46.72;;;5.00;99.90;;;;;;5037213;28;20064;-70
2022/01/16 09:04:16;;;;;;;116.18;47.15;;;5.10;99.90;;;;;;5019660;28;20143;-70
2022/01/16 09:06:42;;;;;;;119.57;46.22;;;5.10;99.90;;;;;;5037573;28;20124;-70
2022/01/16 09:09:07;;;;;;;108.65;44.33;;;5.20;99.90;;;;;;5037095;28;20111;-70
2022/01/16 09:11:33;;;;;;;99.75;44.42;;;5.20;99.90;;;;;;5020207;28;20052;-70
2022/01/16 09:13:58;;;;;;;105.55;44.42;;;5.30;99.90;;;;;;5019783;28;20077;-70
2022/01/16 09:16:24;;;;;;;109.95;44.45;;;5.30;99.90;;;;;;5019316;28;20091;-69
2022/01/16 09:18:50;;;;;;;110.88;43.88;;;5.40;99.90;;;;;;5037132;28;20442;-69
2022/01/16 09:21:17;;;;;;;106.40;42.38;;;5.40;99.90;;;;;;5020297;28;20045;-69
2022/01/16 09:23:47;;;;;;;89.22;40.10;;;5.40;99.90;;;;;;5037179;28;20093;-69
2022/01/16 09:26:13;;;;;;;95.85;41.08;;;5.50;99.90;;;;;;5036934;28;20469;-70
2022/01/16 09:28:40;;;;;;;87.90;39.70;;;5.50;99.90;;;;;;5019665;28;20057;-69
2022/01/16 09:31:06;;;;;;;83.70;39.22;;;5.50;99.90;;;;;;5019873;28;20396;-69
2022/01/16 09:33:32;;;;;;;88.00;39.83;;;5.50;99.90;;;;;;5036767;28;20046;-68
2022/01/16 09:35:57;;;;;;;87.55;39.97;;;5.60;99.90;;;;;;5019483;28;20095;-68
2022/01/16 09:38:23;;;;;;;84.63;39.22;;;5.60;99.90;;;;;;5037180;28;20438;-70
2022/01/16 09:40:49;;;;;;;90.97;39.33;;;5.60;99.90;;;;;;5019465;28;20049;-68
2022/01/16 09:43:16;;;;;;;87.55;40.65;;;5.70;99.90;;;;;;5037006;28;20049;-70
2022/01/16 09:45:42;;;;;;;80.85;38.75;;;5.70;99.90;;;;;;5019316;28;20056;-71
2022/01/16 09:48:07;;;;;;;81.93;38.53;;;5.70;99.90;;;;;;5036445;28;20115;-70
2022/01/16 09:50:34;;;;;;;76.40;38.25;;;5.70;99.90;;;;;;5019940;28;20128;-69
2022/01/16 09:53:00;;;;;;;64.07;35.95;;;5.70;99.90;;;;;;5019307;28;20057;-71
2022/01/16 09:55:26;;;;;;;70.28;36.60;;;5.80;99.90;;;;;;5019196;28;20049;-69
2022/01/16 09:57:54;;;;;;;66.93;35.38;;;5.80;99.90;;;;;;5036389;28;20056;-70
2022/01/16 10:00:21;;;;;;;65.93;35.05;;;5.80;99.90;;;;;;5036698;28;20045;-71
2022/01/16 10:02:47;;;;;;;64.20;34.92;;;5.80;99.90;;;;;;5009790;28;20116;-69
2022/01/16 10:05:31;;;;;;;57.95;33.40;;;5.90;99.90;;;;;;4999261;28;20104;-70
2022/01/16 10:07:59;;;;;;;56.83;32.15;;;5.90;99.90;;;;;;5016958;28;20030;-72
2022/01/16 10:10:33;;;;;;;72.78;34.20;;;6.00;99.90;;;;;;5025908;28;20029;-69
2022/01/16 10:13:06;;;;;;;58.15;34.17;;;6.00;99.90;;;;;;5019101;28;20080;-70
2022/01/16 10:15:32;;;;;;;57.95;33.78;;;6.00;99.90;;;;;;5035877;28;20135;-71
2022/01/16 10:18:01;;;;;;;53.38;31.63;;;6.10;99.90;;;;;;5030152;28;20121;-69
2022/01/16 10:20:28;;;;;;;61.45;31.70;;;6.20;99.90;;;;;;5031086;28;20116;-71
2022/01/16 10:22:56;;;;;;;60.42;32.05;;;6.20;99.90;;;;;;5006482;28;20068;-70
2022/01/16 10:25:45;;;;;;;52.95;31.42;;;6.20;99.90;;;;;;5018534;28;20045;-69
2022/01/16 10:28:22;;;;;;;53.30;30.20;;;6.20;99.90;;;;;;5035658;28;20132;-70
2022/01/16 10:30:51;;;;;;;58.13;30.20;;;6.30;99.90;;;;;;5036244;28;20328;-70
2022/01/16 10:33:23;;;;;;;56.45;29.65;;;6.30;99.90;;;;;;5018162;28;20477;-69
2022/01/16 10:35:52;;;;;;;51.30;28.50;;;6.40;99.90;;;;;;5031465;28;20119;-69
2022/01/16 10:38:23;;;;;;;51.40;28.85;;;6.40;99.90;;;;;;5008632;28;20054;-69
2022/01/16 10:40:50;;;;;;;50.38;27.70;;;6.40;99.90;;;;;;5023003;28;20041;-70
2022/01/16 10:43:35;;;;;;;53.38;27.05;;;6.40;99.90;;;;;;5024728;28;20037;-72
2022/01/16 10:46:01;;;;;;;50.47;27.88;;;6.50;99.90;;;;;;5026882;28;20104;-69
2022/01/16 10:48:26;;;;;;;41.03;26.40;;;6.50;99.90;;;;;;5022483;28;20045;-70
2022/01/16 10:50:52;;;;;;;51.80;26.58;;;6.50;99.90;;;;;;5033364;28;20047;-68
2022/01/16 10:53:23;;;;;;;42.47;26.35;;;6.50;99.90;;;;;;5028349;28;20037;-69
2022/01/16 10:55:54;;;;;;;45.47;25.80;;;6.60;99.90;;;;;;5030669;28;20114;-70
2022/01/16 10:58:38;;;;;;;42.83;24.25;;;6.60;99.90;;;;;;5018007;28;20053;-69
2022/01/16 11:01:08;;;;;;;;;;;6.60;99.90;;;;;;5018030;28;20512;-69
2022/01/16 11:03:45;;;;;;;41.67;22.58;;;6.60;99.90;;;;;;5035084;28;19982;-70
2022/01/16 11:06:12;;;;;;;38.53;23.13;;;6.70;99.90;;;;;;5017495;28;20049;-70
2022/01/16 11:08:39;;;;;;;41.05;22.92;;;6.70;99.90;;;;;;5035184;28;20187;-70
2022/01/16 11:11:07;;;;;;;41.85;23.05;;;6.70;99.90;;;;;;5035194;28;20045;-71
2022/01/16 11:13:34;;;;;;;40.72;23.02;;;6.70;99.90;;;;;;5017672;28;20472;-69
2022/01/16 11:16:03;;;;;;;37.78;22.75;;;6.70;99.90;;;;;;5034978;28;20357;-68
2022/01/16 11:18:30;;;;;;;42.28;22.30;;;6.70;99.90;;;;;;5017951;28;20049;-70
2022/01/16 11:23:32;;;;;;;41.15;20.40;;;6.70;99.90;;;;;;5035179;28;20133;-69
2022/01/16 11:26:05;;;;;;;39.83;22.52;;;6.70;99.90;;;;;;5031542;28;20064;-70
2022/01/16 11:28:31;;;;;;;43.13;21.60;;;6.70;99.90;;;;;;5014193;28;20064;-69
2022/01/16 11:30:59;;;;;;;36.28;20.48;;;6.70;99.90;;;;;;5034336;28;20045;-71
2022/01/16 11:33:27;;;;;;;33.17;19.70;;;6.70;99.90;;;;;;5034643;28;20068;-71
2022/01/16 11:36:07;;;;;;;45.05;18.83;;;6.70;99.90;;;;;;5034435;28;20046;-70
2022/01/16 11:38:41;;;;;;;38.42;18.90;;;6.80;99.90;;;;;;5034692;28;20540;-70
2022/01/16 11:41:15;;;;;;;42.22;18.02;;;6.80;99.90;;;;;;5034633;28;20095;-68
2022/01/16 11:43:44;;;;;;;39.42;18.27;;;6.80;99.90;;;;;;5034819;28;20068;-69
2022/01/16 11:46:16;;;;;;;31.23;17.42;;;6.80;99.90;;;;;;5016234;28;20073;-70
2022/01/16 11:49:03;;;;;;;30.65;17.38;;;6.80;99.90;;;;;;5031642;28;20052;-71
2022/01/16 11:51:35;;;;;;;32.75;16.90;;;6.90;99.90;;;;;;5017280;28;20038;-71
2022/01/16 11:54:53;;;;;;;31.95;15.68;;;6.80;99.90;;;;;;5034658;28;20128;-69
2022/01/16 11:57:23;;;;;;;30.70;14.63;;;6.90;99.90;;;;;;4991288;28;20053;-70
2022/01/16 11:59:54;;;;;;;25.02;14.07;;;6.80;99.90;;;;;;5016870;28;20461;-69
2022/01/16 12:02:23;;;;;;;31.85;13.77;;;6.80;99.90;;;;;;5035663;28;20132;-70
2022/01/16 12:04:54;;;;;;;29.70;14.13;;;6.90;99.90;;;;;;5001029;28;20048;-69
2022/01/16 12:07:20;;;;;;;27.02;12.88;;;6.90;99.90;;;;;;5034172;28;20044;-71
2022/01/16 12:09:57;;;;;;;28.85;14.15;;;6.90;99.90;;;;;;5029346;28;20533;-70
2022/01/16 12:12:23;;;;;;;23.88;12.82;;;6.90;99.90;;;;;;5008227;28;20370;-70
2022/01/16 12:15:02;;;;;;;30.73;13.07;;;6.90;99.90;;;;;;5022966;28;20056;-69
2022/01/16 12:17:46;;;;;;;31.30;12.68;;;6.90;99.90;;;;;;5024224;28;20107;-69
2022/01/16 12:20:12;;;;;;;33.60;13.70;;;6.90;99.90;;;;;;5022983;28;20049;-71
2022/01/16 12:22:53;;;;;;;26.58;12.05;;;6.90;99.90;;;;;;5006421;28;20068;-68
2022/01/16 12:25:40;;;;;;;30.08;12.05;;;6.90;99.90;;;;;;5021363;28;20378;-70
2022/01/16 12:28:08;;;;;;;34.75;13.00;;;6.90;99.90;;;;;;5007099;28;20093;-69
2022/01/16 12:30:55;;;;;;;27.85;12.35;;;6.90;99.90;;;;;;5016857;28;20057;-71
2022/01/16 12:33:35;;;;;;;22.65;12.98;;;6.90;99.90;;;;;;5028162;28;20109;-69
2022/01/16 12:36:08;;;;;;;26.00;12.57;;;7.00;99.90;;;;;;5021200;28;20473;-69
2022/01/16 12:38:44;;;;;;;;;;;7.00;99.90;;;;;;4999315;28;20072;-69
2022/01/16 12:41:50;;;;;;;25.30;10.90;;;6.90;99.90;;;;;;5006850;28;20008;-71
2022/01/16 12:44:17;;;;;;;19.85;10.60;;;7.00;99.90;;;;;;5023678;28;20048;-70
2022/01/16 12:46:48;;;;;;;27.85;10.75;;;7.00;99.90;;;;;;5027847;28;20041;-70
2022/01/16 12:49:26;;;;;;;20.20;10.20;;;7.00;99.90;;;;;;5009906;28;20129;-71
2022/01/16 12:51:55;;;;;;;23.30;10.88;;;7.00;99.90;;;;;;5026250;28;20050;-69
2022/01/16 12:54:25;;;;;;;21.73;10.73;;;7.00;99.90;;;;;;5010215;28;20057;-70
2022/01/16 12:56:52;;;;;;;20.77;9.70;;;7.00;99.90;;;;;;5008932;28;20117;-69
2022/01/16 12:59:23;;;;;;;26.90;10.50;;;7.00;99.90;;;;;;5025297;28;20120;-69
2022/01/16 13:01:52;;;;;;;19.30;9.63;;;7.00;99.90;;;;;;5008249;28;20466;-70
2022/01/16 13:04:21;;;;;;;21.55;9.85;;;7.00;99.90;;;;;;5025737;28;20129;-69
2022/01/16 13:06:47;;;;;;;25.92;10.07;;;7.00;99.90;;;;;;5027179;28;20045;-70
2022/01/16 13:09:13;;;;;;;24.13;10.20;;;7.00;99.90;;;;;;5049019;28;20483;-69
2022/01/16 13:11:41;;;;;;;24.80;10.60;;;7.00;99.90;;;;;;5016292;28;20054;-71
2022/01/16 13:14:11;;;;;;;20.38;10.20;;;7.00;99.90;;;;;;5032776;28;20053;-70
2022/01/16 13:16:39;;;;;;;21.10;9.77;;;7.00;99.90;;;;;;5036185;28;20080;-72
2022/01/16 13:19:24;;;;;;;24.23;9.57;;;7.00;99.90;;;;;;5035376;28;20441;-70